Pays
Station

 

Conditions  météo  pour  Sofia Observ.  -  Bulgarie    Bulgarie

  
26 °C
    
 
 

METAR pour Sofia Observ. :

LBSF 231200Z 12012KT 090V150 9999 SCT060 26/12 Q1018 NOSIG

 

Voici le bulletin pour Sofia Observ. - Bulgarie.
 
Le bulletin a été fait il y a 25 minutes, à 12:00 UTC .
Le vent soufflait à la vitesse de 6.2 mètres par seconde de Est/Sud-est (120°), variant entre Est (090°) et Sud/Sud-est (150°).
 
La température était de 26 °C, avec un point de rosée à 12 °C.
La température ressentie était de 26 °C.
 
La pression atmosphérique était de 1018 hPa.
L'humidité relative était de 41.7%.
 
Il y avait 3 à 4/8ème de nébulosité à une hauteur de 1829 mètres.
 
La visibilité globale était de supérieure à 10 kilomètres.
 

 
 
 

Pays :   A   B   C   D   E   F   G   H   I   J   K   L   M   N   O   P   Q   R   S   T   U   V   W   Y   Z

 

Partenaires :  Info Météo avec Met'info
Météo Marine avec MeteoMarine.net
Infos Site  |  Infos Légales  |  Crédits  |  Confidentialité
Contactez-nous  |  Ajouter aux favoris
© 2013-2018 METAR - Tous droits réservés